Time;durP1;ratioP1;P1;durP2;ratioP2;P2;SDS_P1;SDS_P2;PMS_P1;PMS_P2;Temp;Humidity;BMP_temperature;BMP_pressure;BME280_temperature;BME280_humidity;BME280_pressure;Samples;Min_cycle;Max_cycle;Signal;HPM_P1;HPM_P2
2022/01/22 00:00:15;;;;;;;;;;;;;;;17.78;58.78;101251.47;4995301;28;1973;-35
2022/01/22 00:02:43;;;;;;;;;;;;;;;17.79;58.61;101247.84;5007905;28;1972;-34
2022/01/22 00:05:14;;;;;;;;;;;;;;;17.81;58.46;101245.91;5034380;28;1100;-34
2022/01/22 00:07:45;;;;;;;;;;;;;;;17.82;58.38;101252.09;5026271;28;1721;-35
2022/01/22 00:10:26;;;;;;;;;;;;;;;17.73;58.42;101251.00;5021592;28;1670;-34
2022/01/22 00:13:07;;;;;;;;;;;;;;;17.76;58.55;101247.22;5020793;28;1769;-34
2022/01/22 00:15:41;;;;;;;;;;;;;;;17.73;58.68;101250.16;5018807;28;1962;-34
2022/01/22 00:18:12;;;;;;;;;;;;;;;17.74;58.51;101252.69;5015206;28;1595;-34
2022/01/22 00:20:39;;;;;;;;;;;;;;;17.72;58.59;101245.75;5020216;28;1906;-34
2022/01/22 00:23:05;;;;;;;;;;;;;;;17.74;58.49;101241.13;5025311;28;1860;-35
2022/01/22 00:25:53;;;;;;;;;;;;;;;17.71;58.36;101239.56;5022785;28;1587;-34
2022/01/22 00:28:20;;;;;;;;;;;;;;;17.70;58.52;101240.50;5021957;28;1131;-34
2022/01/22 00:30:52;;;;;;;;;;;;;;;17.69;58.48;101228.13;5017675;28;1637;-35
2022/01/22 00:33:26;;;;;;;;;;;;;;;17.70;58.64;101243.19;5025056;28;1853;-34
2022/01/22 00:35:54;;;;;;;;;;;;;;;17.65;58.59;101234.66;5027842;28;2035;-34
2022/01/22 00:38:22;;;;;;;;;;;;;;;17.66;58.41;101239.03;5024660;28;1783;-34
2022/01/22 00:40:52;;;;;;;;;;;;;;;17.80;58.01;101233.50;5020111;28;1906;-34
2022/01/22 00:43:20;;;;;;;;;;;;;;;18.02;57.54;101226.53;5026010;28;1627;-35
2022/01/22 00:45:52;;;;;;;;;;;;;;;18.19;56.99;101220.75;4994771;28;1079;-34
2022/01/22 00:48:20;;;;;;;;;;;;;;;18.36;56.28;101216.75;5014968;28;1798;-35
2022/01/22 00:50:52;;;;;;;;;;;;;;;18.48;56.10;101220.28;5019733;28;1955;-35
2022/01/22 00:53:19;;;;;;;;;;;;;;;18.54;55.82;101213.59;5018665;28;1816;-35
2022/01/22 00:55:49;;;;;;;;;;;;;;;18.59;55.82;101217.63;5024499;28;1519;-34
2022/01/22 00:58:16;;;;;;;;;;;;;;;18.57;56.24;101206.16;5018323;28;1938;-34
2022/01/22 01:00:43;;;;;;;;;;;;;;;18.54;55.93;101201.03;5014486;28;1907;-34
2022/01/22 01:03:13;;;;;;;;;;;;;;;18.49;55.82;101195.22;5018041;28;1964;-34
2022/01/22 01:05:43;;;;;;;;;;;;;;;18.43;55.92;101190.34;5021393;28;1894;-34
2022/01/22 01:08:13;;;;;;;;;;;;;;;18.34;56.25;101183.88;5019714;28;1913;-34
2022/01/22 01:10:49;;;;;;;;;;;;;;;18.26;56.05;101179.16;5022386;28;1889;-35
2022/01/22 01:13:18;;;;;;;;;;;;;;;18.21;56.27;101188.50;5038261;28;1724;-35
2022/01/22 01:15:58;;;;;;;;;;;;;;;18.20;56.40;101186.78;5035969;28;1072;-35
2022/01/22 01:32:32;;;;;;;;;;;;;;;17.89;55.98;101168.63;5034720;28;1709;-34
2022/01/22 01:35:06;;;;;;;;;;;;;;;17.87;56.75;101169.72;5043214;28;1602;-34
2022/01/22 01:37:37;;;;;;;;;;;;;;;17.83;56.08;101161.06;5042615;28;1795;-34
2022/01/22 01:40:06;;;;;;;;;;;;;;;17.78;56.63;101171.22;5039124;28;1906;-34
2022/01/22 01:42:42;;;;;;;;;;;;;;;17.72;56.96;101157.47;5038580;28;1619;-34
2022/01/22 01:45:09;;;;;;;;;;;;;;;17.69;56.87;101163.94;5042779;28;1038;-34
2022/01/22 01:47:41;;;;;;;;;;;;;;;17.71;57.28;101153.97;5035497;28;1551;-34
2022/01/22 01:50:14;;;;;;;;;;;;;;;17.68;57.28;101154.19;5032303;28;1474;-34
2022/01/22 01:52:46;;;;;;;;;;;;;;;17.66;57.30;101169.50;5047490;28;1766;-34
2022/01/22 01:55:17;;;;;;;;;;;;;;;17.63;57.36;101164.41;5038316;28;1664;-34
2022/01/22 01:57:43;;;;;;;;;;;;;;;17.63;57.81;101165.25;5047860;28;1593;-34
2022/01/22 02:00:13;;;;;;;;;;;;;;;17.63;57.00;101161.72;5033780;28;1967;-34
2022/01/22 02:02:40;;;;;;;;;;;;;;;17.67;57.39;101168.53;5031492;28;1429;-34
2022/01/22 02:05:08;;;;;;;;;;;;;;;17.62;57.23;101168.03;5022048;28;1578;-34
2022/01/22 02:07:42;;;;;;;;;;;;;;;17.62;56.95;101166.19;5025289;28;1596;-34
2022/01/22 02:10:15;;;;;;;;;;;;;;;17.57;57.61;101172.91;5021575;28;1760;-34
2022/01/22 02:23:54;;;;;;;;;;;;;;;17.68;56.95;101152.34;5018167;28;2026;-34
2022/01/22 02:26:22;;;;;;;;;;;;;;;17.66;56.67;101140.94;5024913;28;1857;-34
2022/01/22 02:28:53;;;;;;;;;;;;;;;17.64;57.12;101139.34;5023410;28;1405;-34
2022/01/22 02:31:28;;;;;;;;;;;;;;;17.66;56.78;101153.44;5023078;28;1084;-34
2022/01/22 02:34:04;;;;;;;;;;;;;;;17.64;57.05;101158.91;5019453;28;1880;-33
2022/01/22 02:36:58;;;;;;;;;;;;;;;17.64;57.01;101148.22;5018557;28;1794;-34
2022/01/22 02:39:37;;;;;;;;;;;;;;;17.65;57.09;101157.13;5028967;28;1035;-34
2022/01/22 02:42:03;;;;;;;;;;;;;;;17.59;56.72;101154.91;5017893;28;1828;-34
2022/01/22 02:44:34;;;;;;;;;;;;;;;17.61;57.11;101147.63;5022345;28;2005;-34
2022/01/22 02:47:01;;;;;;;;;;;;;;;17.58;57.35;101148.69;5016773;28;1941;-34
2022/01/22 02:49:28;;;;;;;;;;;;;;;17.63;57.31;101153.69;5030398;28;1714;-34
2022/01/22 02:52:03;;;;;;;;;;;;;;;17.62;57.04;101160.00;5020702;28;1329;-35
2022/01/22 02:54:29;;;;;;;;;;;;;;;17.60;56.93;101152.09;5019513;28;1723;-34
2022/01/22 02:56:56;;;;;;;;;;;;;;;17.56;56.96;101141.75;5022826;28;1812;-34
2022/01/22 02:59:24;;;;;;;;;;;;;;;17.58;57.12;101153.19;5026424;28;1958;-34
2022/01/22 03:01:50;;;;;;;;;;;;;;;17.57;57.39;101157.69;5115038;23;3574;-34
2022/01/22 03:04:18;;;;;;;;;;;;;;;17.58;58.19;101170.06;5026382;28;1635;-34
2022/01/22 03:06:46;;;;;;;;;;;;;;;17.52;58.01;101154.50;5029769;28;1923;-34
2022/01/22 03:09:16;;;;;;;;;;;;;;;17.49;58.14;101147.56;5026629;28;1730;-34
2022/01/22 03:11:57;;;;;;;;;;;;;;;17.53;57.73;101155.34;5031160;28;1411;-34
2022/01/22 03:15:00;;;;;;;;;;;;;;;17.44;58.22;101152.41;5025737;28;2287;-34
2022/01/22 03:17:32;;;;;;;;;;;;;;;17.49;57.54;101152.06;5032255;28;1930;-34
2022/01/22 03:20:07;;;;;;;;;;;;;;;17.53;57.87;101150.88;5036081;28;1977;-34
2022/01/22 03:22:54;;;;;;;;;;;;;;;17.58;57.29;101158.53;5032766;28;1794;-34
2022/01/22 03:28:14;;;;;;;;;;;;;;;17.97;56.21;101143.09;5022082;28;1465;-35
2022/01/22 03:30:41;;;;;;;;;;;;;;;18.01;55.64;101142.75;5021216;28;1770;-34
2022/01/22 03:33:08;;;;;;;;;;;;;;;17.94;56.19;101128.13;5026811;28;1745;-34
2022/01/22 03:35:43;;;;;;;;;;;;;;;18.00;55.78;101135.66;5033352;28;3181;-34
2022/01/22 03:38:12;;;;;;;;;;;;;;;17.99;55.85;101133.13;5020817;28;1568;-34
2022/01/22 03:40:42;;;;;;;;;;;;;;;18.01;55.64;101140.06;5031168;28;1887;-34
2022/01/22 03:43:09;;;;;;;;;;;;;;;18.02;55.27;101146.25;5033678;28;1459;-34
2022/01/22 03:45:35;;;;;;;;;;;;;;;18.00;55.58;101141.03;5024355;28;1004;-34
2022/01/22 03:48:01;;;;;;;;;;;;;;;17.97;55.75;101138.59;5024962;28;1787;-34
2022/01/22 03:50:31;;;;;;;;;;;;;;;17.96;55.83;101142.22;5020588;28;1788;-34
2022/01/22 03:52:57;;;;;;;;;;;;;;;18.02;55.44;101146.25;5025821;28;1705;-34
2022/01/22 03:55:36;;;;;;;;;;;;;;;18.01;55.55;101149.94;5018813;28;2064;-34
2022/01/22 03:58:06;;;;;;;;;;;;;;;17.95;55.96;101150.41;5031352;28;1597;-34
2022/01/22 04:00:32;;;;;;;;;;;;;;;17.85;56.04;101145.75;5024313;28;1914;-34
2022/01/22 04:06:04;;;;;;;;;;;;;;;17.66;56.47;101134.72;5046168;28;1624;-34
2022/01/22 04:08:34;;;;;;;;;;;;;;;17.63;56.77;101134.97;5045715;28;1425;-34
2022/01/22 04:11:02;;;;;;;;;;;;;;;17.60;56.80;101145.91;5045302;28;1520;-34
2022/01/22 04:13:35;;;;;;;;;;;;;;;17.61;57.03;101144.94;5038505;28;1078;-34
2022/01/22 04:16:11;;;;;;;;;;;;;;;17.62;56.63;101147.47;5041767;28;1068;-34
2022/01/22 04:27:12;;;;;;;;;;;;;;;17.71;56.34;101137.91;5026369;28;3007;-35
2022/01/22 04:29:43;;;;;;;;;;;;;;;17.68;57.16;101116.75;5050678;28;1791;-34
2022/01/22 04:32:10;;;;;;;;;;;;;;;17.71;56.21;101116.53;5054401;28;1929;-35
2022/01/22 04:34:37;;;;;;;;;;;;;;;17.66;56.63;101124.03;5035240;28;1918;-34
2022/01/22 04:37:04;;;;;;;;;;;;;;;17.75;56.17;101122.50;5052250;28;1786;-34
2022/01/22 04:39:33;;;;;;;;;;;;;;;17.81;56.06;101130.88;5049945;28;1167;-34
2022/01/22 04:42:01;;;;;;;;;;;;;;;17.83;55.99;101131.66;5041512;28;2957;-34
2022/01/22 04:44:33;;;;;;;;;;;;;;;17.80;56.16;101125.66;5042127;28;1916;-34
2022/01/22 04:47:18;;;;;;;;;;;;;;;17.83;56.31;101141.47;5041721;28;2046;-35
2022/01/22 04:52:39;;;;;;;;;;;;;;;17.85;55.92;101118.16;5050248;28;1808;-34
2022/01/22 04:55:06;;;;;;;;;;;;;;;17.85;55.95;101135.06;5045248;28;1842;-34
2022/01/22 04:57:36;;;;;;;;;;;;;;;17.79;56.05;101119.44;5035159;28;1743;-34
2022/01/22 05:00:04;;;;;;;;;;;;;;;17.78;56.00;101119.56;5043987;28;1086;-34
2022/01/22 05:02:32;;;;;;;;;;;;;;;17.81;55.85;101120.19;5055729;28;1906;-34
2022/01/22 05:04:59;;;;;;;;;;;;;;;17.78;56.13;101127.59;5048916;28;1692;-35
2022/01/22 05:07:26;;;;;;;;;;;;;;;17.74;56.06;101116.25;5040685;28;1643;-34
2022/01/22 05:09:56;;;;;;;;;;;;;;;17.73;56.19;101111.91;5047905;28;1371;-34
2022/01/22 05:12:31;;;;;;;;;;;;;;;17.77;56.16;101132.09;5052072;28;1556;-34
2022/01/22 05:14:58;;;;;;;;;;;;;;;17.74;55.99;101121.63;5040761;28;1079;-34
2022/01/22 05:17:24;;;;;;;;;;;;;;;17.74;55.91;101120.78;5061713;28;1893;-34
2022/01/22 05:20:01;;;;;;;;;;;;;;;17.66;56.45;101116.00;5040947;28;1458;-34
2022/01/22 05:25:24;;;;;;;;;;;;;;;17.80;55.98;101117.63;5041086;28;1992;-34
2022/01/22 05:28:01;;;;;;;;;;;;;;;17.79;56.00;101111.44;5039731;28;1383;-35
2022/01/22 05:30:55;;;;;;;;;;;;;;;17.85;56.44;101115.47;5045370;28;1773;-34
2022/01/22 05:36:56;;;;;;;;;;;;;;;17.90;56.80;101110.59;5049780;28;1801;-34
2022/01/22 05:39:10;;;;;;;;;;;;;;;18.43;56.25;101099.31;5036666;28;1699;-34
2022/01/22 05:41:38;;;;;;;;;;;;;;;18.90;56.17;101104.47;5055992;28;1934;-34
2022/01/22 05:44:15;;;;;;;;;;;;;;;19.12;55.55;101109.75;5048101;28;2443;-34
2022/01/22 05:46:42;;;;;;;;;;;;;;;19.40;54.72;101099.41;5054825;28;1563;-34
2022/01/22 05:49:08;;;;;;;;;;;;;;;19.39;55.26;101101.22;5053800;28;1596;-34
2022/01/22 05:51:39;;;;;;;;;;;;;;;19.41;55.68;101109.97;5053882;28;1566;-34
2022/01/22 05:59:39;;;;;;;;;;;;;;;19.41;55.19;101104.59;5054791;28;1633;-34
2022/01/22 06:02:06;;;;;;;;;;;;;;;19.42;55.04;101100.97;5050308;28;1918;-35
2022/01/22 06:04:33;;;;;;;;;;;;;;;19.51;54.08;101101.16;5052242;28;1573;-36
2022/01/22 06:07:01;;;;;;;;;;;;;;;19.60;55.00;101105.75;5054241;28;1645;-34
2022/01/22 06:09:28;;;;;;;;;;;;;;;19.63;53.92;101110.84;5056084;28;1197;-34
2022/01/22 06:11:57;;;;;;;;;;;;;;;19.62;54.23;101101.94;5055243;28;1644;-34
2022/01/22 06:14:24;;;;;;;;;;;;;;;19.67;54.23;101106.91;5054384;28;1626;-35
2022/01/22 06:16:51;;;;;;;;;;;;;;;19.70;54.42;101103.97;5054115;28;1782;-34
2022/01/22 06:19:17;;;;;;;;;;;;;;;19.63;54.39;101100.09;5055865;28;1401;-37
2022/01/22 06:21:44;;;;;;;;;;;;;;;19.64;54.53;101097.28;5052391;28;1907;-34
2022/01/22 06:24:12;;;;;;;;;;;;;;;19.61;55.27;101102.06;5054316;28;1437;-34
2022/01/22 06:26:38;;;;;;;;;;;;;;;19.44;55.70;101104.38;5054399;28;1611;-33
2022/01/22 06:29:05;;;;;;;;;;;;;;;19.47;55.01;101101.41;5055007;28;1525;-34
2022/01/22 06:31:32;;;;;;;;;;;;;;;19.41;55.00;101117.19;5053257;28;1525;-34
2022/01/22 06:33:59;;;;;;;;;;;;;;;19.30;54.97;101110.06;5054103;28;1594;-36
2022/01/22 06:36:26;;;;;;;;;;;;;;;19.42;55.10;101117.06;5052032;28;1780;-34
2022/01/22 06:38:56;;;;;;;;;;;;;;;19.28;55.69;101114.69;5053721;28;1431;-34
2022/01/22 06:44:08;;;;;;;;;;;;;;;19.22;56.18;101112.53;5056264;28;1552;-34
2022/01/22 06:46:35;;;;;;;;;;;;;;;19.20;55.54;101112.66;5058092;28;1522;-34
2022/01/22 06:49:02;;;;;;;;;;;;;;;19.15;56.00;101116.69;5060788;28;1918;-34
2022/01/22 06:51:28;;;;;;;;;;;;;;;19.10;56.61;101100.13;5055065;28;1966;-34
2022/01/22 06:53:55;;;;;;;;;;;;;;;19.06;56.12;101110.28;5055994;28;1896;-34
2022/01/22 06:56:22;;;;;;;;;;;;;;;19.11;56.08;101107.19;5054297;28;1507;-34
2022/01/22 06:58:50;;;;;;;;;;;;;;;19.08;56.13;101108.31;5053043;28;1650;-35
2022/01/22 07:01:16;;;;;;;;;;;;;;;19.11;56.65;101101.84;5055101;28;1914;-34
2022/01/22 07:03:43;;;;;;;;;;;;;;;19.05;56.55;101093.31;5051435;28;1520;-34
2022/01/22 07:06:12;;;;;;;;;;;;;;;19.03;57.51;101100.63;5054481;28;1563;-35
2022/01/22 07:08:43;;;;;;;;;;;;;;;19.02;56.85;101103.44;5054025;28;1573;-33
2022/01/22 07:11:09;;;;;;;;;;;;;;;19.03;57.12;101105.16;5048138;28;1520;-34
2022/01/22 07:13:37;;;;;;;;;;;;;;;19.05;56.17;101101.34;5044825;28;1671;-34
2022/01/22 07:16:05;;;;;;;;;;;;;;;19.10;56.93;101100.13;5050819;28;1465;-34
2022/01/22 07:18:32;;;;;;;;;;;;;;;19.08;57.31;101103.78;5049762;28;1813;-34
2022/01/22 07:21:02;;;;;;;;;;;;;;;19.04;56.24;101088.94;5054324;28;1952;-34
2022/01/22 07:23:55;;;;;;;;;;;;;;;19.04;56.88;101080.06;5053790;28;1602;-34
2022/01/22 07:26:20;;;;;;;;;;;;;;;19.02;56.89;101082.88;5056183;28;2027;-34
2022/01/22 07:28:47;;;;;;;;;;;;;;;19.04;56.67;101077.38;5054147;28;1574;-34
2022/01/22 07:31:14;;;;;;;;;;;;;;;19.04;56.66;101074.72;5054829;28;1468;-35
2022/01/22 07:33:41;;;;;;;;;;;;;;;19.18;56.72;101092.28;5044345;28;1818;-34
2022/01/22 07:36:07;;;;;;;;;;;;;;;19.21;55.60;101078.63;5048554;28;1483;-34
2022/01/22 07:38:37;;;;;;;;;;;;;;;19.24;56.71;101076.56;5052675;28;1566;-34
2022/01/22 07:41:04;;;;;;;;;;;;;;;19.29;55.97;101062.75;5053728;28;1973;-34
2022/01/22 07:43:30;;;;;;;;;;;;;;;19.40;56.82;101064.53;5051579;28;1532;-33
2022/01/22 07:45:57;;;;;;;;;;;;;;;19.43;56.79;101065.09;5054541;28;1866;-34
2022/01/22 07:48:25;;;;;;;;;;;;;;;19.42;56.75;101060.72;5050690;28;1727;-35
2022/01/22 07:50:51;;;;;;;;;;;;;;;19.42;58.06;101059.88;5044784;28;1820;-34
2022/01/22 07:53:18;;;;;;;;;;;;;;;19.47;57.47;101071.06;5050579;28;1645;-34
2022/01/22 07:55:44;;;;;;;;;;;;;;;19.47;58.17;101088.00;5051245;28;2069;-34
2022/01/22 07:58:11;;;;;;;;;;;;;;;19.24;57.14;101087.28;5047286;28;1578;-34
2022/01/22 08:00:38;;;;;;;;;;;;;;;18.98;58.74;101083.22;5053216;28;1147;-34
2022/01/22 08:03:06;;;;;;;;;;;;;;;18.90;57.12;101072.31;5047109;28;1961;-34
2022/01/22 08:05:34;;;;;;;;;;;;;;;18.98;56.75;101075.19;5048776;28;1548;-35
2022/01/22 08:08:00;;;;;;;;;;;;;;;19.17;55.43;101075.34;5055060;28;1545;-34
2022/01/22 08:10:27;;;;;;;;;;;;;;;19.32;54.71;101062.50;5048723;28;1536;-34
2022/01/22 08:12:53;;;;;;;;;;;;;;;19.71;55.67;101069.94;5044672;28;1529;-34
2022/01/22 08:15:21;;;;;;;;;;;;;;;19.98;56.45;101064.03;5053372;28;1099;-35
2022/01/22 08:17:48;;;;;;;;;;;;;;;20.14;55.96;101058.16;5052675;28;1506;-35
2022/01/22 08:20:16;;;;;;;;;;;;;;;19.99;56.86;101069.25;5056321;28;1661;-34
2022/01/22 08:22:44;;;;;;;;;;;;;;;20.00;56.56;101072.81;5044516;28;1967;-35
2022/01/22 08:25:11;;;;;;;;;;;;;;;19.70;59.37;101068.25;5047935;28;1471;-35
2022/01/22 08:28:52;;;;;;;;;;;;;;;19.79;49.02;101052.19;5051874;28;1594;-35
2022/01/22 08:30:27;;;;;;;;;;;;;;;19.86;53.82;101053.38;5047608;28;1647;-35
2022/01/22 08:33:08;;;;;;;;;;;;;;;19.65;55.00;101057.91;5050267;28;1550;-34
2022/01/22 08:35:53;;;;;;;;;;;;;;;19.48;55.76;101060.19;5045800;28;1606;-35
2022/01/22 08:38:21;;;;;;;;;;;;;;;19.51;56.07;101048.34;5043945;28;1765;-35
2022/01/22 08:40:47;;;;;;;;;;;;;;;19.56;56.00;101058.72;5050183;28;2139;-35
2022/01/22 08:43:14;;;;;;;;;;;;;;;19.59;57.00;101069.16;5051776;28;1961;-37
2022/01/22 08:45:40;;;;;;;;;;;;;;;19.56;56.70;101054.19;5045108;28;1163;-36
2022/01/22 08:48:07;;;;;;;;;;;;;;;19.56;57.16;101056.88;5047406;28;1851;-35
2022/01/22 08:50:34;;;;;;;;;;;;;;;19.54;56.91;101063.34;5045429;28;1649;-35
2022/01/22 08:53:01;;;;;;;;;;;;;;;19.51;56.24;101056.41;5048720;28;1585;-37
2022/01/22 08:55:29;;;;;;;;;;;;;;;19.46;56.47;101058.66;5046458;28;1633;-35
2022/01/22 08:57:55;;;;;;;;;;;;;;;19.35;57.50;101061.38;5049981;28;1953;-35
2022/01/22 09:00:23;;;;;;;;;;;;;;;19.46;56.80;101047.91;5050057;28;1519;-36
2022/01/22 09:02:50;;;;;;;;;;;;;;;19.44;56.23;101037.31;5050413;28;1957;-35
2022/01/22 09:05:17;;;;;;;;;;;;;;;19.39;56.77;101039.53;5051945;28;1735;-35
2022/01/22 09:07:43;;;;;;;;;;;;;;;19.35;56.93;101035.41;5047270;28;1478;-36
2022/01/22 09:10:10;;;;;;;;;;;;;;;19.26;57.08;101026.34;5047752;28;1439;-35
2022/01/22 09:12:38;;;;;;;;;;;;;;;19.22;56.54;101029.41;5051099;28;1520;-35
2022/01/22 09:15:05;;;;;;;;;;;;;;;19.22;57.86;101018.69;5040759;28;1366;-35
2022/01/22 09:17:31;;;;;;;;;;;;;;;19.11;58.96;101024.09;5038087;28;1743;-35
2022/01/22 09:19:58;;;;;;;;;;;;;;;19.17;60.36;101028.94;5041856;28;1523;-35
2022/01/22 09:22:25;;;;;;;;;;;;;;;19.16;60.46;101021.88;5047205;28;1906;-35
2022/01/22 09:24:52;;;;;;;;;;;;;;;19.14;60.88;101019.34;5047970;28;1485;-35
2022/01/22 09:27:19;;;;;;;;;;;;;;;19.11;60.77;101005.34;5042067;28;1721;-35
2022/01/22 09:29:48;;;;;;;;;;;;;;;19.11;59.41;100983.91;5047311;28;1201;-36
2022/01/22 09:32:14;;;;;;;;;;;;;;;19.02;59.55;100985.50;5042903;28;1686;-36
2022/01/22 09:34:41;;;;;;;;;;;;;;;19.03;61.28;100993.44;5049037;28;1649;-35
2022/01/22 09:37:07;;;;;;;;;;;;;;;18.95;60.32;100990.53;5043217;28;1445;-36
2022/01/22 09:39:34;;;;;;;;;;;;;;;18.95;61.26;100974.47;5052212;28;1639;-36
2022/01/22 09:42:00;;;;;;;;;;;;;;;18.94;62.25;100983.50;5049793;28;1971;-35
2022/01/22 09:44:27;;;;;;;;;;;;;;;19.00;59.54;100985.66;5050438;28;1546;-36
2022/01/22 09:46:56;;;;;;;;;;;;;;;19.07;59.73;100970.75;5051370;28;1689;-36
2022/01/22 09:49:23;;;;;;;;;;;;;;;19.00;61.02;100960.66;5043221;28;1546;-35
2022/01/22 09:51:49;;;;;;;;;;;;;;;19.18;61.54;100968.97;5047528;28;1083;-35
2022/01/22 09:54:15;;;;;;;;;;;;;;;19.11;60.21;100941.84;5051127;28;2003;-35
2022/01/22 09:56:44;;;;;;;;;;;;;;;19.08;58.43;100952.84;5056957;28;1601;-34
2022/01/22 09:59:11;;;;;;;;;;;;;;;19.25;59.09;100940.66;5056084;28;1646;-34
2022/01/22 10:01:37;;;;;;;;;;;;;;;19.26;60.48;100953.94;5061893;28;1818;-36
2022/01/22 10:04:07;;;;;;;;;;;;;;;19.57;59.16;100955.78;5056270;28;1898;-34
2022/01/22 10:06:35;;;;;;;;;;;;;;;19.67;59.99;100956.66;5045314;28;1783;-35
2022/01/22 10:09:10;;;;;;;;;;;;;;;19.65;59.34;100940.69;5043936;28;1743;-33
2022/01/22 10:11:36;;;;;;;;;;;;;;;20.02;58.66;100931.25;5043103;28;1857;-34
2022/01/22 10:14:03;;;;;;;;;;;;;;;19.89;59.69;100944.91;5042381;28;1784;-34
2022/01/22 10:16:30;;;;;;;;;;;;;;;19.79;59.34;100942.19;5036159;28;1843;-33
2022/01/22 10:19:12;;;;;;;;;;;;;;;19.92;59.33;100943.78;5047606;28;1423;-37
2022/01/22 10:21:39;;;;;;;;;;;;;;;20.11;58.82;100941.13;5041547;28;1839;-35
2022/01/22 10:24:27;;;;;;;;;;;;;;;20.00;59.32;100938.59;5041199;28;1898;-35
2022/01/22 10:27:08;;;;;;;;;;;;;;;20.27;60.06;100936.09;5055203;28;2052;-34
2022/01/22 10:29:35;;;;;;;;;;;;;;;20.08;60.01;100919.94;5053411;28;1719;-34
2022/01/22 10:32:03;;;;;;;;;;;;;;;19.96;60.61;100915.69;5046522;28;1926;-34
2022/01/22 10:34:31;;;;;;;;;;;;;;;20.23;59.56;100923.94;5047091;28;1948;-34
2022/01/22 10:36:58;;;;;;;;;;;;;;;20.32;59.02;100913.34;5044772;28;1704;-33
2022/01/22 10:39:26;;;;;;;;;;;;;;;20.33;58.37;100905.13;5049144;28;1793;-34
2022/01/22 10:41:52;;;;;;;;;;;;;;;20.35;56.57;100905.84;5050066;28;1662;-34
2022/01/22 10:44:36;;;;;;;;;;;;;;;20.20;58.11;100918.00;5048724;28;1973;-35
2022/01/22 10:47:04;;;;;;;;;;;;;;;20.08;57.30;100919.09;5052248;28;1626;-34
2022/01/22 10:49:32;;;;;;;;;;;;;;;19.96;58.48;100915.69;5054398;28;1311;-36
2022/01/22 10:52:00;;;;;;;;;;;;;;;19.81;59.00;100915.22;5052698;28;1386;-35
2022/01/22 10:54:27;;;;;;;;;;;;;;;19.86;58.57;100919.19;5055026;28;1193;-34
2022/01/22 10:56:54;;;;;;;;;;;;;;;19.87;59.22;100909.28;5053137;28;1397;-34
2022/01/22 10:59:21;;;;;;;;;;;;;;;19.86;57.94;100896.88;5053580;28;1515;-34
2022/01/22 11:01:54;;;;;;;;;;;;;;;19.81;58.32;100894.59;5051604;28;1522;-34
2022/01/22 11:04:22;;;;;;;;;;;;;;;19.83;58.33;100889.09;5044874;28;1957;-34
2022/01/22 11:06:52;;;;;;;;;;;;;;;19.80;57.31;100886.69;5040246;28;1257;-35
2022/01/22 11:09:18;;;;;;;;;;;;;;;19.58;57.65;100882.38;5043086;28;1598;-34
2022/01/22 11:11:45;;;;;;;;;;;;;;;19.44;57.76;100875.56;5037113;28;1614;-34
2022/01/22 11:14:12;;;;;;;;;;;;;;;19.44;58.00;100873.72;5028269;28;1650;-35
2022/01/22 11:16:41;;;;;;;;;;;;;;;19.39;58.68;100865.22;5033246;28;1345;-36
2022/01/22 11:19:08;;;;;;;;;;;;;;;19.26;59.29;100876.19;5018475;28;1660;-35
2022/01/22 11:21:36;;;;;;;;;;;;;;;19.23;60.71;100875.59;5017938;28;1967;-33
2022/01/22 11:24:05;;;;;;;;;;;;;;;19.17;63.60;100876.13;5021086;28;1969;-34
2022/01/22 11:26:31;;;;;;;;;;;;;;;19.06;62.89;100861.84;5027061;28;1960;-35
2022/01/22 11:28:59;;;;;;;;;;;;;;;19.03;63.27;100861.25;5024799;28;1837;-34
2022/01/22 11:31:26;;;;;;;;;;;;;;;18.97;65.07;100851.91;5045510;28;1554;-34
2022/01/22 11:33:54;;;;;;;;;;;;;;;18.96;63.81;100855.59;5029685;28;1852;-34
2022/01/22 11:36:23;;;;;;;;;;;;;;;18.90;63.58;100856.13;5025712;28;1994;-34
2022/01/22 11:38:52;;;;;;;;;;;;;;;18.76;64.26;100861.75;5020890;28;1599;-34
2022/01/22 11:41:21;;;;;;;;;;;;;;;18.63;61.95;100862.81;5027908;28;1819;-36
2022/01/22 11:44:08;;;;;;;;;;;;;;;18.52;62.67;100870.91;5024421;28;1973;-34
2022/01/22 11:46:37;;;;;;;;;;;;;;;18.66;60.19;100861.69;5035425;28;1584;-34
2022/01/22 11:49:10;;;;;;;;;;;;;;;18.65;59.48;100831.41;5031935;28;1850;-34
2022/01/22 11:51:36;;;;;;;;;;;;;;;18.77;59.68;100852.75;5030272;28;1680;-34
2022/01/22 11:54:03;;;;;;;;;;;;;;;18.97;59.98;100841.19;5027364;28;1949;-35
2022/01/22 11:56:31;;;;;;;;;;;;;;;18.97;60.10;100835.84;5009986;28;11354;-35
2022/01/22 11:59:16;;;;;;;;;;;;;;;18.80;59.94;100836.44;4966744;28;10954;-34
2022/01/22 12:01:53;;;;;;;;;;;;;;;18.76;59.49;100829.63;4999998;28;1807;-34
2022/01/22 12:04:20;;;;;;;;;;;;;;;18.78;59.82;100844.59;5023504;28;1898;-37
2022/01/22 12:07:01;;;;;;;;;;;;;;;18.74;60.10;100831.59;5023414;28;1074;-34
2022/01/22 12:09:30;;;;;;;;;;;;;;;18.67;60.19;100826.75;5023282;28;1924;-34
2022/01/22 12:14:54;;;;;;;;;;;;;;;18.81;60.28;100822.06;5023027;28;806;-34
2022/01/22 12:17:41;;;;;;;;;;;;;;;19.08;58.88;100824.19;5031483;28;1648;-33
2022/01/22 12:20:40;;;;;;;;;;;;;;;19.36;58.12;100835.13;5029088;28;1615;-34
2022/01/22 12:23:08;;;;;;;;;;;;;;;19.52;59.01;100837.28;5028132;28;1914;-35
2022/01/22 12:25:50;;;;;;;;;;;;;;;19.73;59.23;100832.72;5026843;28;1788;-33
2022/01/22 12:28:31;;;;;;;;;;;;;;;19.80;57.64;100820.47;5017383;28;1742;-34
2022/01/22 12:31:02;;;;;;;;;;;;;;;19.88;58.66;100821.59;5032335;28;2091;-33
2022/01/22 12:33:43;;;;;;;;;;;;;;;19.80;59.50;100814.25;5028257;28;1925;-34
2022/01/22 12:36:17;;;;;;;;;;;;;;;19.74;60.28;100826.38;5020103;28;1638;-33
2022/01/22 12:38:47;;;;;;;;;;;;;;;19.75;59.85;100822.69;5026814;28;1806;-33
2022/01/22 12:41:28;;;;;;;;;;;;;;;19.74;59.59;100814.81;5026931;28;1438;-33
2022/01/22 12:44:02;;;;;;;;;;;;;;;19.68;59.27;100810.81;5030679;28;1914;-33
2022/01/22 12:46:29;;;;;;;;;;;;;;;19.63;59.64;100813.03;5034105;28;1502;-33
2022/01/22 12:48:57;;;;;;;;;;;;;;;19.53;59.61;100796.09;5025396;28;1956;-33
2022/01/22 12:51:26;;;;;;;;;;;;;;;19.46;59.95;100812.75;5025222;28;2029;-33
2022/01/22 12:53:53;;;;;;;;;;;;;;;19.42;59.86;100805.13;5024876;28;1843;-34
2022/01/22 12:56:48;;;;;;;;;;;;;;;19.39;59.16;100825.00;5023472;28;2064;-33
2022/01/22 12:59:13;;;;;;;;;;;;;;;19.42;58.57;100816.69;5024256;28;1799;-33
2022/01/22 13:01:43;;;;;;;;;;;;;;;19.43;58.42;100815.69;5031127;28;1577;-34
2022/01/22 13:04:10;;;;;;;;;;;;;;;19.42;59.02;100814.00;5032464;28;2251;-33
2022/01/22 13:06:39;;;;;;;;;;;;;;;19.37;59.06;100810.88;5030467;28;1517;-33
2022/01/22 13:09:06;;;;;;;;;;;;;;;19.38;59.41;100809.91;5030711;28;1463;-34
2022/01/22 13:11:33;;;;;;;;;;;;;;;19.32;59.58;100818.50;5030992;28;1535;-33
2022/01/22 13:14:00;;;;;;;;;;;;;;;19.26;59.85;100819.88;5030968;28;1645;-33
2022/01/22 13:16:27;;;;;;;;;;;;;;;19.32;59.78;100815.81;5032711;28;1341;-35
2022/01/22 13:18:57;;;;;;;;;;;;;;;19.23;60.13;100805.88;5031318;28;1612;-35
2022/01/22 13:21:24;;;;;;;;;;;;;;;19.14;59.73;100806.69;5028741;28;1516;-34
2022/01/22 13:24:06;;;;;;;;;;;;;;;18.97;60.33;100809.03;5029702;28;1902;-34
2022/01/22 13:26:44;;;;;;;;;;;;;;;18.86;60.13;100811.78;5029961;28;1642;-34
2022/01/22 13:29:18;;;;;;;;;;;;;;;18.81;60.30;100814.03;5030715;28;1372;-34
2022/01/22 13:31:55;;;;;;;;;;;;;;;18.76;60.22;100814.41;5032428;28;1517;-34
2022/01/22 13:34:31;;;;;;;;;;;;;;;18.72;60.06;100817.47;5032418;28;1597;-35
2022/01/22 13:37:34;;;;;;;;;;;;;;;18.71;60.00;100808.59;5031340;28;1461;-36
2022/01/22 13:40:13;;;;;;;;;;;;;;;18.77;59.84;100816.09;5032362;28;1977;-34
2022/01/22 13:48:34;;;;;;;;;;;;;;;19.25;58.92;100809.28;5026246;28;1342;-35
2022/01/22 13:51:01;;;;;;;;;;;;;;;19.36;58.90;100801.16;5030335;28;1650;-35
2022/01/22 13:53:28;;;;;;;;;;;;;;;19.38;60.54;100812.59;5030929;28;1585;-33
2022/01/22 13:56:00;;;;;;;;;;;;;;;19.49;59.44;100811.59;5030210;28;1529;-33
2022/01/22 13:58:26;;;;;;;;;;;;;;;19.39;59.77;100816.94;5029310;28;1650;-33
2022/01/22 14:00:53;;;;;;;;;;;;;;;19.36;60.92;100801.16;5035686;28;1408;-33
2022/01/22 14:03:32;;;;;;;;;;;;;;;19.29;61.41;100824.13;5033804;28;1969;-33
2022/01/22 14:06:00;;;;;;;;;;;;;;;19.24;61.00;100812.97;5034364;28;1528;-33
2022/01/22 14:08:30;;;;;;;;;;;;;;;19.35;59.20;100810.16;5035116;28;1528;-34